ETHS

Fassberg Airport

Germany
METAR ETHS 240320Z 29007KT 9999 -SHRA BKN038TCU 07/06 Q1022 BLU
Observed Flight Rules
Sep-24 @ 03:20 UTC (an hour ago) Visual Flight Rules
Wind Visibility Clouds Conditions
290° at 7 knots 10,000+ meters
  • Broken at 3,800' AGL
  • Light Rain
Temperatures Readings
Current 7°C / 45°F
Dewpoint 6°C / 43°F
Humidity 93%
Altimeter 30.18" Hg
Pressure 1022 hPa
Elevation 88
METAR ETHS 240320Z 29007KT 9999 -SHRA BKN038TCU 07/06 Q1022 BLU
Observed Flight Rules
Sep-24 @ 03:20 UTC
(an hour ago)
VFR
Wind Visibility
290° at 7 knots 10,000+ meters
Clouds
  • Broken at 3,800' AGL
Conditions
  • Light Rain
Temperature Dewpoint
7°C / 45°F 6°C / 43°F
Humidity Altimeter Pressure
93% 30.18" Hg 1022 hPa